createdAt,value
2019-02-02T00:00:44.379Z,0.54
2019-02-02T00:03:16.229Z,0.52
2019-02-02T00:05:48.023Z,0.52
2019-02-02T00:08:19.738Z,0.48
2019-02-02T00:10:51.656Z,0.49
2019-02-02T00:13:23.515Z,0.47
2019-02-02T00:15:55.373Z,0.47
2019-02-02T00:18:27.182Z,0.43
2019-02-02T00:20:58.981Z,0.43
2019-02-02T00:23:30.845Z,0.42
2019-02-02T00:26:02.723Z,0.42
2019-02-02T00:28:34.759Z,0.40
2019-02-02T00:31:07.613Z,0.56
2019-02-02T00:33:39.654Z,0.61
2019-02-02T00:36:11.530Z,0.59
2019-02-02T00:38:43.250Z,0.54
2019-02-02T00:41:14.967Z,0.73
2019-02-02T00:43:46.749Z,0.66
2019-02-02T00:46:18.471Z,0.62
2019-02-02T00:48:50.182Z,0.49
2019-02-02T00:51:21.968Z,0.57
2019-02-02T00:53:53.762Z,0.62
2019-02-02T00:56:25.537Z,0.58
2019-02-02T00:58:57.245Z,0.40
2019-02-02T01:01:29.115Z,0.33
2019-02-02T01:04:00.832Z,0.32
2019-02-02T01:06:32.697Z,0.24
2019-02-02T01:09:09.960Z,0.19
2019-02-02T01:11:42.050Z,0.16
2019-02-02T01:14:13.912Z,0.09
2019-02-02T01:16:45.646Z,-0.03
2019-02-02T01:19:18.404Z,-0.04
2019-02-02T01:21:50.284Z,0.00
2019-02-02T01:24:22.085Z,-0.01
2019-02-02T01:26:54.071Z,-0.04
2019-02-02T01:29:25.829Z,-0.04
2019-02-02T01:31:57.576Z,-0.14
2019-02-02T01:34:29.361Z,-0.06
2019-02-02T01:37:01.252Z,-0.18
2019-02-02T01:39:32.968Z,-0.13
2019-02-02T01:42:04.922Z,-0.21
2019-02-02T01:44:36.723Z,-0.18
2019-02-02T01:47:08.532Z,-0.18
2019-02-02T01:49:40.318Z,-0.16
2019-02-02T01:52:12.188Z,-0.15
2019-02-02T01:54:44.072Z,-0.17
2019-02-02T01:57:15.809Z,-0.19
2019-02-02T01:59:47.555Z,-0.23
2019-02-02T02:02:20.260Z,-0.24
2019-02-02T02:04:51.983Z,-0.23
2019-02-02T02:07:23.721Z,-0.25
2019-02-02T02:09:55.460Z,-0.30
2019-02-02T02:12:27.185Z,-0.29
2019-02-02T02:14:59.075Z,-0.32
2019-02-02T02:17:30.805Z,-0.34
2019-02-02T02:20:02.604Z,-0.13
2019-02-02T02:22:40.822Z,-0.16
2019-02-02T02:25:11.879Z,-0.26
2019-02-02T02:27:43.936Z,-0.29
2019-02-02T02:30:18.804Z,-0.33
2019-02-02T02:32:51.101Z,-0.34
2019-02-02T02:35:23.048Z,-0.39
2019-02-02T02:37:54.924Z,-0.26
2019-02-02T02:40:26.873Z,-0.26
2019-02-02T02:42:58.802Z,-0.29
2019-02-02T02:45:30.617Z,-0.26
2019-02-02T02:48:02.547Z,-0.26
2019-02-02T02:50:34.272Z,-0.28
2019-02-02T02:53:06.288Z,-0.27
2019-02-02T02:55:37.976Z,-0.26
2019-02-02T02:58:09.842Z,-0.24
2019-02-02T03:00:41.767Z,-0.27
2019-02-02T03:03:13.751Z,-0.29
2019-02-02T03:05:45.542Z,-0.31
2019-02-02T03:08:17.434Z,-0.32
2019-02-02T03:10:49.244Z,-0.31
2019-02-02T03:13:21.224Z,-0.39
2019-02-02T03:15:53.053Z,-0.35
2019-02-02T03:18:24.848Z,-0.28
2019-02-02T03:20:56.568Z,-0.23
2019-02-02T03:23:28.290Z,-0.17
2019-02-02T03:26:00.093Z,-0.14
2019-02-02T03:28:31.835Z,-0.11
2019-02-02T03:31:03.774Z,-0.08
2019-02-02T03:33:35.583Z,-0.11
2019-02-02T03:36:07.473Z,-0.09
2019-02-02T03:38:39.364Z,0.02
2019-02-02T03:41:11.399Z,-0.10
2019-02-02T03:43:43.284Z,-0.15
2019-02-02T03:46:15.238Z,-0.12
2019-02-02T03:48:47.061Z,-0.11
2019-02-02T03:51:18.897Z,-0.06
2019-02-02T03:53:50.802Z,-0.11
2019-02-02T03:56:22.531Z,-0.09
2019-02-02T03:59:06.201Z,-0.06
2019-02-02T04:01:30.058Z,-0.07
2019-02-02T04:04:02.672Z,0.07
2019-02-02T04:06:34.794Z,-0.06
2019-02-02T04:09:08.718Z,-0.03
2019-02-02T04:11:43.430Z,-0.01
2019-02-02T04:14:14.203Z,0.01
2019-02-02T04:16:46.075Z,-0.01
2019-02-02T04:19:17.828Z,-0.03
2019-02-02T04:21:49.560Z,-0.02
2019-02-02T04:24:21.455Z,-0.05
2019-02-02T04:26:53.193Z,-0.03
2019-02-02T04:29:24.996Z,-0.01
2019-02-02T04:31:56.894Z,0.00
2019-02-02T04:34:28.712Z,-0.01
2019-02-02T04:37:00.463Z,-0.02
2019-02-02T04:39:32.308Z,0.00
2019-02-02T04:42:04.082Z,0.02
2019-02-02T04:44:35.836Z,-0.02
2019-02-02T04:47:07.726Z,0.00
2019-02-02T04:49:39.792Z,0.00
2019-02-02T04:52:11.666Z,-0.04
2019-02-02T04:54:43.484Z,0.01
2019-02-02T04:57:15.221Z,0.08
2019-02-02T04:59:47.212Z,0.41
2019-02-02T05:02:19.338Z,0.10
2019-02-02T05:04:51.126Z,0.10
2019-02-02T05:07:22.863Z,0.10
2019-02-02T05:09:54.700Z,0.07
2019-02-02T05:12:26.758Z,0.09
2019-02-02T05:14:58.484Z,0.10
2019-02-02T05:17:30.342Z,0.12
2019-02-02T05:20:02.259Z,0.12
2019-02-02T05:22:34.023Z,0.13
2019-02-02T05:25:07.424Z,0.14
2019-02-02T05:27:39.305Z,0.14
2019-02-02T05:30:19.197Z,0.15
2019-02-02T05:32:51.017Z,0.17
2019-02-02T05:35:23.067Z,0.15
2019-02-02T05:37:54.881Z,0.18
2019-02-02T05:40:26.850Z,0.18
2019-02-02T05:42:58.732Z,0.14
2019-02-02T05:45:30.625Z,0.06
2019-02-02T05:48:02.562Z,0.02
2019-02-02T05:50:34.366Z,0.12
2019-02-02T05:53:06.186Z,0.12
2019-02-02T05:55:38.057Z,0.13
2019-02-02T05:58:09.875Z,0.12
2019-02-02T06:00:53.396Z,0.15
2019-02-02T06:03:25.290Z,0.17
2019-02-02T06:05:57.156Z,0.16
2019-02-02T06:08:28.968Z,0.19
2019-02-02T06:11:00.860Z,0.20
2019-02-02T06:13:33.067Z,0.20
2019-02-02T06:16:05.050Z,0.20
2019-02-02T06:18:36.864Z,0.17
2019-02-02T06:21:09.560Z,0.21
2019-02-02T06:23:41.392Z,0.29
2019-02-02T06:26:13.189Z,0.31
2019-02-02T06:28:44.928Z,0.28
2019-02-02T06:31:16.756Z,0.46
2019-02-02T06:33:48.492Z,0.37
2019-02-02T06:36:20.288Z,0.27
2019-02-02T06:38:52.300Z,0.25
2019-02-02T06:41:24.240Z,0.26
2019-02-02T06:43:55.982Z,0.25
2019-02-02T06:46:28.004Z,0.28
2019-02-02T06:49:01.578Z,0.38
2019-02-02T06:51:33.490Z,0.35
2019-02-02T06:54:05.784Z,0.29
2019-02-02T06:56:37.594Z,0.30
2019-02-02T06:59:09.519Z,0.30
2019-02-02T07:01:41.471Z,0.28
2019-02-02T07:04:13.311Z,0.27
2019-02-02T07:06:45.112Z,0.25
2019-02-02T07:09:16.926Z,0.22
2019-02-02T07:11:48.786Z,0.18
2019-02-02T07:14:21.728Z,0.19
2019-02-02T07:16:53.530Z,0.22
2019-02-02T07:19:25.518Z,0.13
2019-02-02T07:21:57.508Z,0.22
2019-02-02T07:24:29.344Z,0.18
2019-02-02T07:27:01.248Z,0.21
2019-02-02T07:29:33.436Z,0.21
2019-02-02T07:32:05.458Z,0.23
2019-02-02T07:34:37.199Z,0.26
2019-02-02T07:37:08.916Z,0.28
2019-02-02T07:39:40.979Z,0.21
2019-02-02T07:42:12.704Z,0.13
2019-02-02T07:44:44.521Z,0.21
2019-02-02T07:47:16.408Z,0.25
2019-02-02T07:49:48.465Z,0.25
2019-02-02T07:52:20.340Z,0.30
2019-02-02T07:54:52.158Z,0.30
2019-02-02T07:57:23.967Z,0.32
2019-02-02T07:59:55.895Z,0.34
2019-02-02T08:02:27.783Z,0.34
2019-02-02T08:04:59.562Z,0.35
2019-02-02T08:07:31.265Z,0.37
2019-02-02T08:10:03.164Z,0.42
2019-02-02T08:12:34.979Z,0.45
2019-02-02T08:15:09.417Z,0.48
2019-02-02T08:17:41.386Z,0.51
2019-02-02T08:20:13.789Z,0.46
2019-02-02T08:22:45.759Z,0.48
2019-02-02T08:25:17.991Z,0.42
2019-02-02T08:27:50.007Z,0.44
2019-02-02T08:30:35.556Z,0.45
2019-02-02T08:33:07.433Z,0.48
2019-02-02T08:35:39.316Z,0.46
2019-02-02T08:38:11.497Z,0.46
2019-02-02T08:40:43.441Z,0.49
2019-02-02T08:43:15.317Z,0.50
2019-02-02T08:45:47.146Z,0.50
2019-02-02T08:48:18.914Z,0.53
2019-02-02T08:50:50.729Z,0.51
2019-02-02T08:53:22.530Z,0.52
2019-02-02T08:55:54.348Z,0.58
2019-02-02T08:58:26.240Z,0.60
2019-02-02T09:01:04.091Z,0.63
2019-02-02T09:03:31.992Z,0.67
2019-02-02T09:06:04.277Z,0.65
2019-02-02T09:08:36.287Z,0.69
2019-02-02T09:11:08.078Z,0.73
2019-02-02T09:13:39.816Z,0.73
2019-02-02T09:16:11.934Z,0.78
2019-02-02T09:18:43.666Z,0.79
2019-02-02T09:21:16.533Z,0.80
2019-02-02T09:23:48.400Z,0.85
2019-02-02T09:26:20.140Z,0.90
2019-02-02T09:28:51.983Z,0.95
2019-02-02T09:31:23.710Z,0.99
2019-02-02T09:33:55.601Z,1.03
2019-02-02T09:36:27.494Z,1.11
2019-02-02T09:38:59.387Z,1.13
2019-02-02T09:41:31.120Z,1.18
2019-02-02T09:44:03.036Z,1.21
2019-02-02T09:46:34.776Z,1.27
2019-02-02T09:49:06.691Z,1.34
2019-02-02T09:51:38.583Z,1.41
2019-02-02T09:54:10.332Z,1.50
2019-02-02T09:56:42.155Z,1.56
2019-02-02T09:59:14.144Z,1.66
2019-02-02T10:01:46.038Z,1.75
2019-02-02T10:04:18.036Z,1.83
2019-02-02T10:06:49.784Z,1.89
2019-02-02T10:09:21.661Z,1.94
2019-02-02T10:11:53.766Z,1.97
2019-02-02T10:14:25.505Z,2.05
2019-02-02T10:16:57.332Z,2.05
2019-02-02T10:19:29.143Z,2.13
2019-02-02T10:22:01.198Z,2.18
2019-02-02T10:24:33.290Z,2.27
2019-02-02T10:27:05.268Z,2.36
2019-02-02T10:29:37.080Z,2.48
2019-02-02T10:32:08.945Z,2.58
2019-02-02T10:34:40.837Z,2.70
2019-02-02T10:37:12.748Z,2.77
2019-02-02T10:39:44.487Z,2.96
2019-02-02T10:42:16.499Z,3.10
2019-02-02T10:44:48.352Z,3.20
2019-02-02T10:47:20.122Z,3.28
2019-02-02T10:49:52.166Z,3.33
2019-02-02T10:52:23.979Z,3.40
2019-02-02T10:54:55.875Z,3.51
2019-02-02T10:57:27.774Z,3.67
2019-02-02T10:59:59.676Z,3.83
2019-02-02T11:02:31.695Z,3.97
2019-02-02T11:05:04.193Z,4.12
2019-02-02T11:07:36.468Z,4.31
2019-02-02T11:10:11.769Z,4.47
2019-02-02T11:12:43.947Z,4.66
2019-02-02T11:15:17.112Z,4.76
2019-02-02T11:17:49.356Z,4.95
2019-02-02T11:20:24.445Z,5.18
2019-02-02T11:22:56.570Z,5.25
2019-02-02T11:25:29.984Z,5.45
2019-02-02T11:28:02.480Z,5.71
2019-02-02T11:30:34.827Z,5.92
2019-02-02T11:33:07.857Z,5.91
2019-02-02T11:35:39.881Z,6.16
2019-02-02T11:38:11.765Z,6.29
2019-02-02T11:40:43.583Z,6.61
2019-02-02T11:43:15.537Z,6.61
2019-02-02T11:45:47.281Z,6.86
2019-02-02T11:48:19.523Z,6.86
2019-02-02T11:50:51.559Z,7.13
2019-02-02T11:53:23.549Z,7.35
2019-02-02T11:55:55.462Z,7.58
2019-02-02T11:58:27.190Z,7.56
2019-02-02T12:01:00.277Z,7.61
2019-02-02T12:03:32.386Z,7.66
2019-02-02T12:06:04.387Z,7.89
2019-02-02T12:08:37.450Z,7.99
2019-02-02T12:11:10.427Z,8.12
2019-02-02T12:13:42.413Z,8.16
2019-02-02T12:16:14.909Z,8.11
2019-02-02T12:18:46.826Z,8.23
2019-02-02T12:21:19.282Z,8.38
2019-02-02T12:23:51.417Z,8.33
2019-02-02T12:26:23.322Z,7.81
2019-02-02T12:28:55.136Z,7.70
2019-02-02T12:31:27.149Z,7.54
2019-02-02T12:33:58.980Z,6.80
2019-02-02T12:36:31.063Z,6.36
2019-02-02T12:39:04.741Z,6.66
2019-02-02T12:41:36.949Z,6.31
2019-02-02T12:44:08.926Z,6.05
2019-02-02T12:46:40.866Z,5.85
2019-02-02T12:49:12.641Z,5.96
2019-02-02T12:51:44.615Z,5.85
2019-02-02T12:54:16.646Z,5.88
2019-02-02T12:56:48.468Z,5.85
2019-02-02T12:59:20.378Z,5.77
2019-02-02T13:01:52.565Z,5.61
2019-02-02T13:04:24.739Z,5.67
2019-02-02T13:06:56.984Z,5.59
2019-02-02T13:09:29.056Z,5.59
2019-02-02T13:12:01.233Z,5.31
2019-02-02T13:14:33.910Z,5.36
2019-02-02T13:17:06.467Z,5.31
2019-02-02T13:19:38.294Z,5.21
2019-02-02T13:22:10.487Z,5.12
2019-02-02T13:24:45.278Z,5.13
2019-02-02T13:27:16.877Z,5.16
2019-02-02T13:29:49.023Z,5.03
2019-02-02T13:32:22.512Z,5.17
2019-02-02T13:34:56.553Z,5.13
2019-02-02T13:37:30.217Z,5.07
2019-02-02T13:40:03.770Z,5.09
2019-02-02T13:42:35.917Z,5.05
2019-02-02T13:45:08.595Z,5.01
2019-02-02T13:47:41.272Z,4.86
2019-02-02T13:50:15.609Z,4.93
2019-02-02T13:52:48.479Z,4.70
2019-02-02T13:55:22.454Z,4.86
2019-02-02T13:57:54.566Z,4.90
2019-02-02T14:00:29.663Z,4.98
2019-02-02T14:03:03.461Z,4.89
2019-02-02T14:05:35.595Z,4.94
2019-02-02T14:08:07.897Z,4.84
2019-02-02T14:10:39.801Z,4.87
2019-02-02T14:13:13.074Z,4.79
2019-02-02T14:15:45.069Z,4.93
2019-02-02T14:18:17.077Z,4.89
2019-02-02T14:20:48.980Z,4.82
2019-02-02T14:23:21.029Z,4.80
2019-02-02T14:25:53.115Z,4.73
2019-02-02T14:28:28.575Z,4.64
2019-02-02T14:30:59.132Z,4.64
2019-02-02T14:33:30.878Z,4.53
2019-02-02T14:36:02.703Z,4.60
2019-02-02T14:38:34.771Z,4.56
2019-02-02T14:41:06.827Z,4.49
2019-02-02T14:43:38.684Z,4.55
2019-02-02T14:46:11.760Z,4.50
2019-02-02T14:48:43.576Z,4.49
2019-02-02T14:51:15.538Z,4.45
2019-02-02T14:53:47.294Z,4.39
2019-02-02T14:56:19.237Z,4.35
2019-02-02T14:58:51.062Z,4.30
2019-02-02T15:01:23.002Z,4.38
2019-02-02T15:03:54.902Z,4.32
2019-02-02T15:06:26.776Z,4.32
2019-02-02T15:08:58.895Z,4.33
2019-02-02T15:11:30.831Z,4.38
2019-02-02T15:14:02.647Z,4.40
2019-02-02T15:16:34.487Z,4.39
2019-02-02T15:19:06.514Z,4.34
2019-02-02T15:21:38.408Z,4.12
2019-02-02T15:24:11.365Z,4.12
2019-02-02T15:26:43.529Z,4.09
2019-02-02T15:29:15.280Z,4.08
2019-02-02T15:31:47.511Z,4.11
2019-02-02T15:34:19.367Z,4.09
2019-02-02T15:36:51.295Z,4.03
2019-02-02T15:39:23.494Z,4.22
2019-02-02T15:41:55.276Z,4.25
2019-02-02T15:44:27.113Z,4.24
2019-02-02T15:46:59.607Z,4.13
2019-02-02T15:49:31.466Z,4.05
2019-02-02T15:52:03.713Z,4.01
2019-02-02T15:54:35.617Z,3.99
2019-02-02T15:57:07.755Z,3.95
2019-02-02T15:59:40.215Z,3.93
2019-02-02T16:02:12.117Z,3.85
2019-02-02T16:04:44.037Z,3.79
2019-02-02T16:07:16.198Z,3.74
2019-02-02T16:09:48.452Z,3.63
2019-02-02T16:12:20.513Z,3.45
2019-02-02T16:14:52.696Z,3.37
2019-02-02T16:17:24.591Z,3.30
2019-02-02T16:19:56.832Z,3.16
2019-02-02T16:22:28.602Z,3.14
2019-02-02T16:25:00.953Z,3.01
2019-02-02T16:27:33.157Z,2.88
2019-02-02T16:30:07.341Z,2.81
2019-02-02T16:32:39.384Z,2.90
2019-02-02T16:35:12.713Z,2.76
2019-02-02T16:37:45.589Z,2.74
2019-02-02T16:40:21.685Z,2.68
2019-02-02T16:42:54.156Z,2.83
2019-02-02T16:45:30.992Z,2.85
2019-02-02T16:48:03.335Z,2.77
2019-02-02T16:50:36.305Z,2.77
2019-02-02T16:53:08.234Z,2.81
2019-02-02T16:55:40.617Z,2.68
2019-02-02T16:58:12.982Z,2.60
2019-02-02T17:00:45.259Z,2.61
2019-02-02T17:03:17.438Z,2.59
2019-02-02T17:05:49.687Z,2.63
2019-02-02T17:08:21.828Z,2.58
2019-02-02T17:10:54.415Z,2.57
2019-02-02T17:13:26.714Z,2.56
2019-02-02T17:15:58.810Z,2.50
2019-02-02T17:18:30.973Z,2.30
2019-02-02T17:21:03.554Z,2.19
2019-02-02T17:23:36.140Z,2.06
2019-02-02T17:26:09.667Z,2.03
2019-02-02T17:28:42.010Z,2.03
2019-02-02T17:31:14.013Z,1.95
2019-02-02T17:33:47.223Z,1.84
2019-02-02T17:36:19.344Z,1.72
2019-02-02T17:38:51.334Z,1.64
2019-02-02T17:41:23.257Z,1.51
2019-02-02T17:43:55.176Z,1.43
2019-02-02T17:46:28.011Z,1.39
2019-02-02T17:49:00.114Z,1.36
2019-02-02T17:51:32.524Z,1.33
2019-02-02T17:54:04.852Z,1.28
2019-02-02T17:56:36.823Z,1.22
2019-02-02T17:59:08.899Z,1.18
2019-02-02T18:01:41.294Z,1.12
2019-02-02T18:04:13.282Z,1.00
2019-02-02T18:06:45.326Z,0.93
2019-02-02T18:09:17.842Z,0.80
2019-02-02T18:11:49.950Z,0.69
2019-02-02T18:14:22.116Z,0.70
2019-02-02T18:16:54.140Z,0.65
2019-02-02T18:19:26.218Z,0.69
2019-02-02T18:21:59.334Z,0.67
2019-02-02T18:24:33.655Z,0.61
2019-02-02T18:27:06.297Z,0.55
2019-02-02T18:29:40.164Z,0.68
2019-02-02T18:32:15.175Z,0.69
2019-02-02T18:34:51.168Z,0.68
2019-02-02T18:37:22.354Z,0.70
2019-02-02T18:39:54.439Z,0.79
2019-02-02T18:42:27.782Z,0.82
2019-02-02T18:45:01.123Z,0.83
2019-02-02T18:47:33.304Z,0.83
2019-02-02T18:50:07.733Z,0.74
2019-02-02T18:52:39.684Z,0.70
2019-02-02T18:55:19.374Z,0.30
2019-02-02T18:57:52.064Z,0.30
2019-02-02T19:00:27.227Z,0.33
2019-02-02T19:03:01.794Z,0.45
2019-02-02T19:05:36.410Z,0.50
2019-02-02T19:08:11.017Z,0.50
2019-02-02T19:10:45.246Z,0.44
2019-02-02T19:13:17.996Z,0.56
2019-02-02T19:15:51.990Z,0.60
2019-02-02T19:18:27.028Z,0.73
2019-02-02T19:21:00.771Z,0.76
2019-02-02T19:23:34.864Z,0.90
2019-02-02T19:26:09.521Z,0.91
2019-02-02T19:28:43.413Z,1.02
2019-02-02T19:31:19.695Z,1.39
2019-02-02T19:33:54.766Z,1.40
2019-02-02T19:36:29.340Z,1.32
2019-02-02T19:39:05.581Z,1.33
2019-02-02T19:41:42.629Z,1.30
2019-02-02T19:44:19.585Z,1.26
2019-02-02T19:46:55.004Z,1.40
2019-02-02T19:49:31.607Z,1.49
2019-02-02T19:52:07.518Z,1.38
2019-02-02T19:54:43.668Z,1.35
2019-02-02T19:57:20.771Z,1.35
2019-02-02T19:59:57.454Z,1.30
2019-02-02T20:02:33.184Z,1.30
2019-02-02T20:05:09.407Z,1.23
2019-02-02T20:07:47.971Z,1.13
2019-02-02T20:10:24.218Z,0.96
2019-02-02T20:13:01.452Z,0.99
2019-02-02T20:15:38.288Z,0.84
2019-02-02T20:18:15.590Z,0.85
2019-02-02T20:20:52.691Z,0.95
2019-02-02T20:23:29.639Z,1.44
2019-02-02T20:26:06.051Z,1.55
2019-02-02T20:28:46.683Z,1.57
2019-02-02T20:31:23.260Z,1.60
2019-02-02T20:33:59.396Z,1.42
2019-02-02T20:36:35.511Z,1.28
2019-02-02T20:39:13.843Z,1.48
2019-02-02T20:41:50.163Z,1.58
2019-02-02T20:44:26.167Z,1.57
2019-02-02T20:47:03.186Z,1.37
2019-02-02T20:49:38.537Z,1.26
2019-02-02T20:52:15.841Z,1.23
2019-02-02T20:54:52.305Z,1.16
2019-02-02T20:57:47.392Z,1.16
2019-02-02T21:00:25.783Z,1.15
2019-02-02T21:03:01.506Z,1.14
2019-02-02T21:05:37.450Z,1.10
2019-02-02T21:08:11.999Z,1.04
2019-02-02T21:10:46.277Z,0.96
2019-02-02T21:13:21.169Z,0.86
2019-02-02T21:15:56.114Z,0.96
2019-02-02T21:18:32.367Z,0.94
2019-02-02T21:21:07.950Z,0.98
2019-02-02T21:23:42.354Z,0.97
2019-02-02T21:26:16.546Z,0.95
2019-02-02T21:28:51.478Z,0.93
2019-02-02T21:31:26.348Z,0.95
2019-02-02T21:34:00.595Z,0.86
2019-02-02T21:36:36.607Z,1.27
2019-02-02T21:39:10.340Z,1.35
2019-02-02T21:41:45.407Z,1.24
2019-02-02T21:44:19.929Z,1.09
2019-02-02T21:46:54.267Z,0.97
2019-02-02T21:49:28.197Z,0.91
2019-02-02T21:52:02.439Z,0.93
2019-02-02T21:54:36.807Z,0.97
2019-02-02T21:57:09.671Z,1.05
2019-02-02T21:59:42.493Z,1.06
2019-02-02T22:02:14.825Z,1.05
2019-02-02T22:04:48.892Z,1.05
2019-02-02T22:07:21.800Z,1.07
2019-02-02T22:09:54.104Z,1.06
2019-02-02T22:12:26.481Z,1.04
2019-02-02T22:14:59.442Z,1.00
2019-02-02T22:17:31.829Z,1.04
2019-02-02T22:20:04.469Z,1.03
2019-02-02T22:22:36.901Z,0.92
2019-02-02T22:25:17.766Z,0.92
2019-02-02T22:27:50.468Z,0.91
2019-02-02T22:30:33.967Z,0.89
2019-02-02T22:33:06.284Z,0.92
2019-02-02T22:35:38.035Z,0.87
2019-02-02T22:38:09.930Z,0.73
2019-02-02T22:40:42.103Z,1.08
2019-02-02T22:43:13.905Z,1.04
2019-02-02T22:45:45.646Z,1.17
2019-02-02T22:48:17.720Z,0.99
2019-02-02T22:50:55.374Z,1.00
2019-02-02T22:53:27.200Z,0.99
2019-02-02T22:55:58.936Z,0.97
2019-02-02T22:58:31.031Z,1.00
2019-02-02T23:01:41.141Z,0.97
2019-02-02T23:05:00.348Z,1.25
2019-02-02T23:08:22.189Z,1.27
2019-02-02T23:11:30.281Z,1.35
2019-02-02T23:14:58.134Z,1.33
2019-02-02T23:17:29.953Z,1.34
2019-02-02T23:20:01.980Z,1.19
2019-02-02T23:22:34.777Z,1.00
2019-02-02T23:25:07.287Z,1.04
2019-02-02T23:27:39.109Z,0.95
2019-02-02T23:30:13.384Z,0.84
2019-02-02T23:32:45.196Z,0.88
2019-02-02T23:35:17.085Z,0.89
2019-02-02T23:37:49.149Z,0.92
2019-02-02T23:40:20.968Z,1.08
2019-02-02T23:42:53.168Z,1.08
2019-02-02T23:45:25.052Z,0.96
2019-02-02T23:47:56.858Z,1.09
2019-02-02T23:50:28.760Z,1.12
2019-02-02T23:53:00.654Z,0.97
2019-02-02T23:55:32.537Z,1.07
2019-02-02T23:58:04.495Z,1.01
